createdAt,value
2022-08-16T00:01:34.213Z,100385.00
2022-08-16T00:04:10.362Z,100422.31
2022-08-16T00:06:41.204Z,100411.00
2022-08-16T00:09:14.222Z,100396.63
2022-08-16T00:11:46.257Z,100388.84
2022-08-16T00:14:19.366Z,100371.59
2022-08-16T00:17:06.714Z,100395.19
2022-08-16T00:19:42.223Z,100393.47
2022-08-16T00:22:15.184Z,100395.72
2022-08-16T00:24:46.953Z,100394.69
2022-08-16T00:27:19.966Z,100399.53
2022-08-16T00:30:08.946Z,100380.09
2022-08-16T00:32:43.488Z,100393.69
2022-08-16T00:35:20.466Z,100411.28
2022-08-16T00:37:58.717Z,100404.88
2022-08-16T00:40:36.724Z,100396.91
2022-08-16T00:43:12.178Z,100392.09
2022-08-16T00:46:32.929Z,100410.69
2022-08-16T00:48:56.858Z,100414.16
2022-08-16T00:51:29.439Z,100402.16
2022-08-16T00:54:00.677Z,100399.31
2022-08-16T00:56:57.674Z,100421.66
2022-08-16T00:59:28.708Z,100410.97
2022-08-16T01:02:00.963Z,100425.38
2022-08-16T01:05:09.619Z,100423.00
2022-08-16T01:07:51.834Z,100416.63
2022-08-16T01:10:32.949Z,100418.59
2022-08-16T01:13:12.117Z,100413.38
2022-08-16T01:15:53.638Z,100420.16
2022-08-16T01:18:40.477Z,100414.97
2022-08-16T01:21:33.570Z,100415.16
2022-08-16T01:24:52.369Z,100437.06
2022-08-16T01:27:21.984Z,100433.00
2022-08-16T01:30:00.383Z,100419.22
2022-08-16T01:32:38.747Z,100421.50
2022-08-16T01:35:17.512Z,100442.97
2022-08-16T01:37:54.787Z,100437.31
2022-08-16T01:40:34.673Z,100399.28
2022-08-16T01:43:06.331Z,100436.00
2022-08-16T01:45:41.415Z,100443.50
2022-08-16T01:48:19.693Z,100437.03
2022-08-16T01:51:08.812Z,100423.31
2022-08-16T01:53:43.068Z,100429.56
2022-08-16T01:56:24.432Z,100426.88
2022-08-16T01:58:59.508Z,100443.59
2022-08-16T02:01:31.978Z,100449.94
2022-08-16T02:04:10.384Z,100442.09
2022-08-16T02:06:46.040Z,100450.97
2022-08-16T02:09:21.531Z,100451.88
2022-08-16T02:11:57.800Z,100458.13
2022-08-16T02:14:33.245Z,100445.75
2022-08-16T02:17:07.532Z,100451.25
2022-08-16T02:19:59.026Z,100467.88
2022-08-16T02:22:34.735Z,100470.78
2022-08-16T02:25:14.710Z,100454.22
2022-08-16T02:27:50.801Z,100468.19
2022-08-16T02:30:36.631Z,100478.53
2022-08-16T02:33:13.237Z,100481.28
2022-08-16T02:35:53.690Z,100482.50
2022-08-16T02:38:28.782Z,100462.34
2022-08-16T02:41:07.333Z,100477.50
2022-08-16T02:43:42.111Z,100478.75
2022-08-16T02:46:12.302Z,100478.81
2022-08-16T02:48:49.171Z,100483.91
2022-08-16T02:51:23.358Z,100481.50
2022-08-16T02:53:54.470Z,100486.22
2022-08-16T02:56:32.076Z,100482.16
2022-08-16T02:59:11.311Z,100480.06
2022-08-16T03:01:42.705Z,100499.03
2022-08-16T03:04:28.910Z,100499.13
2022-08-16T03:07:11.728Z,100497.56
2022-08-16T03:09:44.821Z,100506.31
2022-08-16T03:12:19.359Z,100505.16
2022-08-16T03:14:51.584Z,100501.59
2022-08-16T03:17:23.256Z,100504.56
2022-08-16T03:20:05.791Z,100500.81
2022-08-16T03:22:40.486Z,100503.84
2022-08-16T03:25:17.663Z,100508.63
2022-08-16T03:28:03.165Z,100516.19
2022-08-16T03:30:38.995Z,100526.38
2022-08-16T03:33:11.100Z,100516.34
2022-08-16T03:35:50.885Z,100511.56
2022-08-16T03:38:35.251Z,100521.81
2022-08-16T03:41:24.170Z,100528.56
2022-08-16T03:43:57.034Z,100522.16
2022-08-16T03:46:47.311Z,100527.97
2022-08-16T03:49:23.705Z,100531.47
2022-08-16T03:52:07.674Z,100513.25
2022-08-16T03:54:39.006Z,100525.31
2022-08-16T03:57:23.907Z,100517.88
2022-08-16T04:00:00.997Z,100530.69
2022-08-16T04:02:46.245Z,100524.63
2022-08-16T04:05:20.018Z,100532.00
2022-08-16T04:07:52.505Z,100527.97
2022-08-16T04:10:36.282Z,100532.47
2022-08-16T04:13:06.740Z,100526.59
2022-08-16T04:15:52.833Z,100531.00
2022-08-16T04:18:27.868Z,100534.56
2022-08-16T04:21:00.119Z,100517.69
2022-08-16T04:23:33.325Z,100530.84
2022-08-16T04:26:02.606Z,100536.56
2022-08-16T04:28:53.334Z,100521.44
2022-08-16T04:31:24.834Z,100536.66
2022-08-16T04:33:59.332Z,100538.34
2022-08-16T04:36:29.347Z,100532.09
2022-08-16T04:38:59.066Z,100537.47
2022-08-16T04:41:37.285Z,100539.59
2022-08-16T04:44:32.993Z,100543.34
2022-08-16T04:47:03.310Z,100540.50
2022-08-16T04:49:52.300Z,100540.59
2022-08-16T04:52:34.875Z,100543.19
2022-08-16T04:55:11.904Z,100548.72
2022-08-16T04:57:43.967Z,100543.63
2022-08-16T05:00:31.917Z,100552.63
2022-08-16T05:03:15.972Z,100541.94
2022-08-16T05:05:59.205Z,100550.69
2022-08-16T05:08:32.014Z,100550.31
2022-08-16T05:11:20.370Z,100549.94
2022-08-16T05:13:51.775Z,100560.31
2022-08-16T05:16:30.119Z,100561.97
2022-08-16T05:19:16.380Z,100556.00
2022-08-16T05:22:07.300Z,100555.22
2022-08-16T05:24:49.479Z,100575.59
2022-08-16T05:27:24.435Z,100581.94
2022-08-16T05:29:57.089Z,100578.28
2022-08-16T05:32:34.277Z,100584.34
2022-08-16T05:35:12.516Z,100579.16
2022-08-16T05:37:52.046Z,100587.63
2022-08-16T05:40:22.579Z,100582.38
2022-08-16T05:42:52.236Z,100595.91
2022-08-16T05:45:25.498Z,100596.53
2022-08-16T05:47:59.410Z,100608.47
2022-08-16T05:50:34.765Z,100608.56
2022-08-16T05:53:07.083Z,100599.09
2022-08-16T05:55:47.445Z,100612.59
2022-08-16T05:58:31.697Z,100621.19
2022-08-16T06:01:03.241Z,100622.72
2022-08-16T06:03:34.287Z,100619.16
2022-08-16T06:06:08.527Z,100623.59
2022-08-16T06:08:42.189Z,100616.75
2022-08-16T06:11:16.501Z,100623.81
2022-08-16T06:13:56.009Z,100628.06
2022-08-16T06:16:54.431Z,100630.19
2022-08-16T06:19:24.629Z,100619.94
2022-08-16T06:22:03.378Z,100612.91
2022-08-16T06:24:54.448Z,100617.44
2022-08-16T06:27:25.913Z,100618.69
2022-08-16T06:30:12.381Z,100618.78
2022-08-16T06:32:50.299Z,100635.81
2022-08-16T06:35:20.946Z,100642.94
2022-08-16T06:37:53.173Z,100633.22
2022-08-16T06:40:33.609Z,100635.81
2022-08-16T06:43:03.645Z,100638.72
2022-08-16T06:45:43.507Z,100650.06
2022-08-16T06:48:32.738Z,100644.25
2022-08-16T06:51:06.205Z,100645.69
2022-08-16T06:53:36.925Z,100657.69
2022-08-16T06:56:14.450Z,100645.22
2022-08-16T06:59:01.161Z,100662.50
2022-08-16T07:01:44.531Z,100657.69
2022-08-16T07:04:31.873Z,100647.34
2022-08-16T07:07:09.873Z,100655.34
2022-08-16T07:09:41.105Z,100669.41
2022-08-16T07:12:12.723Z,100659.91
2022-08-16T07:14:47.939Z,100662.50
2022-08-16T07:17:21.621Z,100666.97
2022-08-16T07:20:02.747Z,100663.31
2022-08-16T07:22:43.654Z,100670.13
2022-08-16T07:25:30.401Z,100671.34
2022-08-16T07:28:01.795Z,100675.50
2022-08-16T07:30:45.875Z,100666.22
2022-08-16T07:33:52.173Z,100668.03
2022-08-16T07:36:28.985Z,100677.75
2022-08-16T07:39:00.665Z,100680.97
2022-08-16T07:41:35.879Z,100679.66
2022-08-16T07:44:16.188Z,100671.97
2022-08-16T07:46:56.256Z,100685.38
2022-08-16T07:49:32.300Z,100679.50
2022-08-16T07:52:18.654Z,100680.72
2022-08-16T07:54:53.257Z,100693.38
2022-08-16T07:57:24.485Z,100687.88
2022-08-16T07:59:57.508Z,100696.53
2022-08-16T08:02:28.298Z,100697.44
2022-08-16T08:05:03.462Z,100707.31
2022-08-16T08:07:33.365Z,100704.59
2022-08-16T08:10:11.035Z,100709.00
2022-08-16T08:12:41.959Z,100710.94
2022-08-16T08:15:25.357Z,100708.78
2022-08-16T08:18:00.676Z,100707.44
2022-08-16T08:20:47.479Z,100707.56
2022-08-16T08:23:30.558Z,100704.78
2022-08-16T08:26:00.681Z,100699.16
2022-08-16T08:28:32.457Z,100701.97
2022-08-16T08:31:08.529Z,100700.63
2022-08-16T08:33:43.884Z,100705.47
2022-08-16T08:36:24.899Z,100709.50
2022-08-16T08:39:12.945Z,100710.75
2022-08-16T08:41:46.418Z,100718.56
2022-08-16T08:44:28.803Z,100719.72
2022-08-16T08:47:11.591Z,100719.97
2022-08-16T08:49:46.514Z,100731.59
2022-08-16T08:52:34.603Z,100729.84
2022-08-16T08:55:10.973Z,100737.75
2022-08-16T08:57:50.880Z,100735.47
2022-08-16T09:00:30.361Z,100741.91
2022-08-16T09:03:05.801Z,100730.94
2022-08-16T09:05:43.047Z,100734.53
2022-08-16T09:08:14.036Z,100745.63
2022-08-16T09:11:01.907Z,100727.94
2022-08-16T09:13:34.212Z,100729.41
2022-08-16T09:16:07.181Z,100738.47
2022-08-16T09:18:49.518Z,100741.13
2022-08-16T09:21:31.437Z,100741.50
2022-08-16T09:24:02.793Z,100742.88
2022-08-16T09:26:45.856Z,100748.34
2022-08-16T09:29:24.116Z,100753.25
2022-08-16T09:32:08.684Z,100749.81
2022-08-16T09:34:41.858Z,100736.03
2022-08-16T09:37:18.032Z,100759.84
2022-08-16T09:39:50.409Z,100749.56
2022-08-16T09:42:21.940Z,100741.50
2022-08-16T09:45:10.571Z,100756.16
2022-08-16T09:47:56.675Z,100760.59
2022-08-16T09:50:37.235Z,100761.03
2022-08-16T09:53:16.934Z,100760.94
2022-08-16T09:55:53.990Z,100753.34
2022-08-16T09:58:37.875Z,100758.97
2022-08-16T10:01:14.536Z,100767.06
2022-08-16T10:04:02.137Z,100770.94
2022-08-16T10:06:35.254Z,100765.09
2022-08-16T10:09:08.304Z,100760.66
2022-08-16T10:11:56.485Z,100758.59
2022-08-16T10:14:40.833Z,100760.50
2022-08-16T10:17:15.827Z,100767.97
2022-08-16T10:19:47.190Z,100759.59
2022-08-16T10:22:22.917Z,100755.44
2022-08-16T10:24:55.998Z,100770.00
2022-08-16T10:27:29.824Z,100765.16
2022-08-16T10:30:25.720Z,100774.16
2022-08-16T10:32:58.542Z,100772.91
2022-08-16T10:35:32.762Z,100765.50
2022-08-16T10:38:06.767Z,100783.09
2022-08-16T10:40:39.131Z,100772.75
2022-08-16T10:43:16.858Z,100771.44
2022-08-16T10:46:00.468Z,100770.25
2022-08-16T10:48:31.144Z,100756.63
2022-08-16T10:51:01.026Z,100781.22
2022-08-16T10:53:33.925Z,100780.41
2022-08-16T10:56:51.491Z,100786.00
2022-08-16T10:59:38.480Z,100787.72
2022-08-16T11:13:57.235Z,100785.81
2022-08-16T11:19:06.120Z,100793.53
2022-08-16T11:24:41.409Z,100792.00
2022-08-16T11:27:20.107Z,100791.69
2022-08-16T11:29:53.077Z,100781.03
2022-08-16T11:32:29.863Z,100792.28
2022-08-16T11:35:13.419Z,100800.22
2022-08-16T11:40:44.717Z,100798.50
2022-08-16T11:43:17.118Z,100813.50
2022-08-16T11:45:54.290Z,100787.31
2022-08-16T11:48:24.972Z,100786.47
2022-08-16T11:50:57.618Z,100808.66
2022-08-16T11:53:27.147Z,100816.00
2022-08-16T11:55:58.219Z,100808.72
2022-08-16T11:58:34.081Z,100805.28
2022-08-16T12:01:03.543Z,100818.16
2022-08-16T12:03:41.783Z,100810.53
2022-08-16T12:06:25.391Z,100811.69
2022-08-16T12:09:04.317Z,100819.56
2022-08-16T12:11:34.179Z,100816.78
2022-08-16T12:14:09.329Z,100802.19
2022-08-16T12:16:38.732Z,100818.72
2022-08-16T12:19:15.350Z,100809.47
2022-08-16T12:21:58.816Z,100824.31
2022-08-16T12:24:29.896Z,100825.72
2022-08-16T12:27:01.360Z,100831.16
2022-08-16T12:29:32.356Z,100840.25
2022-08-16T12:32:35.921Z,100830.78
2022-08-16T12:34:53.135Z,100838.00
2022-08-16T12:37:27.541Z,100837.34
2022-08-16T12:39:58.035Z,100832.47
2022-08-16T12:42:34.448Z,100829.50
2022-08-16T12:45:15.168Z,100840.72
2022-08-16T12:48:32.622Z,100836.13
2022-08-16T12:50:56.895Z,100841.47
2022-08-16T12:53:26.896Z,100843.63
2022-08-16T12:56:02.222Z,100842.78
2022-08-16T12:58:47.338Z,100844.00
2022-08-16T13:01:25.763Z,100841.53
2022-08-16T13:04:20.214Z,100845.69
2022-08-16T13:06:55.928Z,100848.69
2022-08-16T13:09:26.698Z,100852.81
2022-08-16T13:12:19.322Z,100862.06
2022-08-16T13:14:51.414Z,100842.84
2022-08-16T13:17:29.793Z,100856.41
2022-08-16T13:20:07.621Z,100843.94
2022-08-16T13:25:20.841Z,100852.66
2022-08-16T13:28:02.368Z,100856.59
2022-08-16T13:30:46.741Z,100846.66
2022-08-16T13:33:26.157Z,100850.31
2022-08-16T13:36:01.707Z,100838.22
2022-08-16T13:38:37.734Z,100838.28
2022-08-16T13:41:09.009Z,100842.50
2022-08-16T13:43:39.819Z,100837.84
2022-08-16T13:46:09.774Z,100840.06
2022-08-16T13:48:44.560Z,100847.22
2022-08-16T13:51:18.058Z,100831.06
2022-08-16T13:53:54.608Z,100828.00
2022-08-16T13:56:38.101Z,100834.91
2022-08-16T13:59:14.311Z,100834.50
2022-08-16T14:01:56.003Z,100839.19
2022-08-16T14:04:29.741Z,100840.88
2022-08-16T14:07:04.438Z,100840.22
2022-08-16T14:09:36.570Z,100846.97
2022-08-16T14:12:17.619Z,100840.56
2022-08-16T14:14:48.544Z,100848.66
2022-08-16T14:17:22.523Z,100818.94
2022-08-16T14:19:53.769Z,100849.91
2022-08-16T14:22:35.861Z,100846.38
2022-08-16T14:25:16.666Z,100798.00
2022-08-16T14:27:48.747Z,100840.03
2022-08-16T14:30:25.050Z,100855.06
2022-08-16T14:32:55.623Z,100846.66
2022-08-16T14:35:48.591Z,100854.56
2022-08-16T14:38:23.541Z,100865.72
2022-08-16T14:40:54.786Z,100868.06
2022-08-16T14:43:25.329Z,100872.78
2022-08-16T14:45:55.655Z,100862.81
2022-08-16T14:48:25.786Z,100853.84
2022-08-16T14:50:57.840Z,100841.47
2022-08-16T14:53:28.067Z,100863.66
2022-08-16T14:55:57.781Z,100824.03
2022-08-16T14:58:36.596Z,100829.19
2022-08-16T15:01:10.005Z,100848.31
2022-08-16T15:03:44.455Z,100867.19
2022-08-16T15:06:16.465Z,100880.31
2022-08-16T15:08:48.109Z,100877.56
2022-08-16T15:11:17.789Z,100881.50
2022-08-16T15:13:47.429Z,100881.06
2022-08-16T15:16:17.192Z,100877.44
2022-08-16T15:18:47.472Z,100877.50
2022-08-16T15:21:18.154Z,100843.47
2022-08-16T15:23:47.617Z,100885.00
2022-08-16T15:26:34.687Z,100883.84
2022-08-16T15:29:11.017Z,100879.78
2022-08-16T15:31:44.644Z,100858.94
2022-08-16T15:34:19.109Z,100887.44
2022-08-16T15:36:56.937Z,100897.38
2022-08-16T15:39:35.542Z,100895.03
2022-08-16T15:42:15.705Z,100894.31
2022-08-16T15:44:58.577Z,100899.09
2022-08-16T15:47:28.700Z,100887.47
2022-08-16T15:49:58.115Z,100905.47
2022-08-16T15:52:32.939Z,100906.81
2022-08-16T15:55:23.861Z,100892.53
2022-08-16T15:57:57.934Z,100907.22
2022-08-16T16:00:28.014Z,100891.63
2022-08-16T16:03:08.393Z,100901.22
2022-08-16T16:05:39.649Z,100919.50
2022-08-16T16:08:12.860Z,100901.91
2022-08-16T16:10:44.720Z,100911.41
2022-08-16T16:13:24.703Z,100913.84
2022-08-16T16:15:58.264Z,100906.56
2022-08-16T16:18:30.089Z,100905.44
2022-08-16T16:21:03.280Z,100900.59
2022-08-16T16:23:44.835Z,100913.81
2022-08-16T16:26:24.891Z,100903.50
2022-08-16T16:29:07.953Z,100917.13
2022-08-16T16:31:40.559Z,100905.50
2022-08-16T16:34:10.081Z,100913.16
2022-08-16T16:36:48.312Z,100921.94
2022-08-16T16:39:19.336Z,100922.63
2022-08-16T16:41:48.642Z,100922.56
2022-08-16T16:44:31.769Z,100917.69
2022-08-16T16:47:03.221Z,100928.06
2022-08-16T16:49:33.961Z,100925.22
2022-08-16T16:52:07.170Z,100919.06
2022-08-16T16:54:38.232Z,100925.56
2022-08-16T16:57:27.646Z,100914.81
2022-08-16T16:59:56.470Z,100935.19
2022-08-16T17:02:46.360Z,100930.50
2022-08-16T17:05:15.830Z,100895.44
2022-08-16T17:07:47.559Z,100942.38
2022-08-16T17:10:46.691Z,100944.72
2022-08-16T17:13:08.182Z,100927.19
2022-08-16T17:15:37.480Z,100936.06
2022-08-16T17:18:06.888Z,100901.63
2022-08-16T17:20:56.145Z,100930.91
2022-08-16T17:23:57.594Z,100931.38
2022-08-16T17:26:17.517Z,100930.84
2022-08-16T17:28:58.530Z,100905.56
2022-08-16T17:31:40.991Z,100921.03
2022-08-16T17:34:28.784Z,100911.22
2022-08-16T17:37:04.974Z,100928.88
2022-08-16T17:39:56.826Z,100928.00
2022-08-16T17:42:27.251Z,100926.09
2022-08-16T17:44:56.584Z,100937.59
2022-08-16T17:47:26.269Z,100929.06
2022-08-16T17:49:55.572Z,100953.31
2022-08-16T17:52:24.867Z,100943.53
2022-08-16T17:54:54.152Z,100953.56
2022-08-16T17:57:23.364Z,100956.41
2022-08-16T17:59:54.051Z,100942.34
2022-08-16T18:02:53.115Z,100955.56
2022-08-16T18:05:16.406Z,100957.19
2022-08-16T18:07:46.358Z,100946.41
2022-08-16T18:10:31.264Z,100955.47
2022-08-16T18:13:03.152Z,100964.22
2022-08-16T18:15:34.321Z,100967.88
2022-08-16T18:18:03.759Z,100975.56
2022-08-16T18:20:50.880Z,100983.72
2022-08-16T18:23:23.962Z,100987.50
2022-08-16T18:25:58.032Z,100978.75
2022-08-16T18:28:29.351Z,100986.88
2022-08-16T18:31:03.782Z,100987.94
2022-08-16T18:33:43.426Z,100988.91
2022-08-16T18:36:21.160Z,101002.69
2022-08-16T18:38:51.987Z,100998.47
2022-08-16T18:41:23.811Z,101005.25
2022-08-16T18:44:23.200Z,101020.66
2022-08-16T18:46:50.963Z,101023.59
2022-08-16T18:49:21.092Z,101025.94
2022-08-16T18:51:51.059Z,101020.97
2022-08-16T18:54:20.915Z,101019.94
2022-08-16T18:56:57.405Z,101021.19
2022-08-16T18:59:33.259Z,101036.44
2022-08-16T19:02:05.639Z,101029.41
2022-08-16T19:04:54.821Z,101043.97
2022-08-16T19:07:30.905Z,101048.97
2022-08-16T19:10:02.603Z,101054.00
2022-08-16T19:12:37.740Z,101053.19
2022-08-16T19:15:16.379Z,101050.97
2022-08-16T19:17:47.757Z,101056.47
2022-08-16T19:20:21.421Z,101056.72
2022-08-16T19:23:10.091Z,101060.09
2022-08-16T19:25:47.610Z,101067.88
2022-08-16T19:28:51.066Z,101074.31
2022-08-16T19:31:17.766Z,101067.19
2022-08-16T19:33:54.191Z,101074.97
2022-08-16T19:36:32.475Z,101073.72
2022-08-16T19:39:06.504Z,101069.34
2022-08-16T19:41:37.763Z,101085.25
2022-08-16T19:44:08.565Z,101067.44
2022-08-16T19:46:38.536Z,101097.84
2022-08-16T19:49:09.254Z,101098.69
2022-08-16T19:51:38.725Z,101097.25
2022-08-16T19:54:07.901Z,101103.53
2022-08-16T19:56:37.116Z,101084.09
2022-08-16T19:59:39.177Z,101096.19
2022-08-16T20:01:55.546Z,101103.31
2022-08-16T20:04:26.989Z,101106.13
2022-08-16T20:06:56.947Z,101104.66
2022-08-16T20:09:27.263Z,101108.34
2022-08-16T20:11:59.267Z,101127.16
2022-08-16T20:14:30.786Z,101138.53
2022-08-16T20:17:01.781Z,101126.00
2022-08-16T20:19:39.937Z,101141.19
2022-08-16T20:22:49.882Z,101147.41
2022-08-16T20:25:17.432Z,101154.69
2022-08-16T20:27:46.785Z,101144.00
2022-08-16T20:30:17.776Z,101159.63
2022-08-16T20:32:48.943Z,101153.44
2022-08-16T20:35:25.313Z,101172.22
2022-08-16T20:37:56.152Z,101168.22
2022-08-16T20:40:35.380Z,101176.75
2022-08-16T20:43:10.090Z,101163.16
2022-08-16T20:45:42.730Z,101183.53
2022-08-16T20:48:12.488Z,101182.19
2022-08-16T20:50:43.980Z,101181.16
2022-08-16T20:53:13.500Z,101188.09
2022-08-16T20:55:45.011Z,101195.56
2022-08-16T20:58:14.673Z,101200.53
2022-08-16T21:00:45.570Z,101166.25
2022-08-16T21:03:17.422Z,101201.47
2022-08-16T21:05:48.054Z,101187.75
2022-08-16T21:08:50.998Z,101185.06
2022-08-16T21:11:08.505Z,101186.22
2022-08-16T21:13:42.535Z,101201.84
2022-08-16T21:16:13.073Z,101205.50
2022-08-16T21:18:42.751Z,101205.41
2022-08-16T21:21:19.774Z,101216.06
2022-08-16T21:23:52.177Z,101215.13
2022-08-16T21:26:21.882Z,101217.19
2022-08-16T21:28:53.200Z,101202.22
2022-08-16T21:31:24.804Z,101202.25
2022-08-16T21:33:56.834Z,101212.34
2022-08-16T21:36:34.976Z,101194.72
2022-08-16T21:39:07.233Z,101213.59
2022-08-16T21:41:38.527Z,101236.41
2022-08-16T21:44:08.256Z,101236.25
2022-08-16T21:46:37.707Z,101232.69
2022-08-16T21:49:06.994Z,101232.13
2022-08-16T21:51:37.658Z,101242.38
2022-08-16T21:54:07.192Z,101244.53
2022-08-16T21:56:36.845Z,101234.63
2022-08-16T21:59:11.055Z,101210.56
2022-08-16T22:01:42.271Z,101232.56
2022-08-16T22:04:37.990Z,101218.72
2022-08-16T22:07:05.310Z,101221.28
2022-08-16T22:09:34.919Z,101240.91
2022-08-16T22:12:04.762Z,101255.81
2022-08-16T22:14:34.086Z,101232.91
2022-08-16T22:17:03.598Z,101236.41
2022-08-16T22:19:32.913Z,101246.47
2022-08-16T22:22:02.723Z,101248.78
2022-08-16T22:24:33.531Z,101249.88
2022-08-16T22:27:03.138Z,101250.22
2022-08-16T22:29:32.611Z,101254.44
2022-08-16T22:32:04.665Z,101257.22
2022-08-16T22:34:34.411Z,101248.03
2022-08-16T22:37:03.775Z,101264.41
2022-08-16T22:39:34.356Z,101267.63
2022-08-16T22:42:08.294Z,101260.88
2022-08-16T22:44:45.660Z,101264.16
2022-08-16T22:47:19.864Z,101265.91
2022-08-16T22:49:51.266Z,101260.59
2022-08-16T22:52:55.390Z,101267.84
2022-08-16T22:55:12.688Z,101257.56
2022-08-16T22:57:41.990Z,101275.53
2022-08-16T23:00:16.016Z,101245.47
2022-08-16T23:03:00.978Z,101274.28
2022-08-16T23:05:35.939Z,101277.50
2022-08-16T23:08:09.017Z,101273.84
2022-08-16T23:10:40.048Z,101261.81
2022-08-16T23:13:11.112Z,101270.63
2022-08-16T23:15:45.356Z,101279.81
2022-08-16T23:18:17.714Z,101271.22
2022-08-16T23:20:48.143Z,101261.41
2022-08-16T23:23:21.898Z,101247.34
2022-08-16T23:25:56.127Z,101245.25
2022-08-16T23:28:29.862Z,101269.53
2022-08-16T23:31:00.499Z,101261.91
2022-08-16T23:33:30.528Z,101261.28
2022-08-16T23:36:02.115Z,101266.00
2022-08-16T23:38:37.551Z,101263.59
2022-08-16T23:41:12.269Z,101268.63
2022-08-16T23:43:44.290Z,101260.84
2022-08-16T23:46:17.432Z,101273.16
2022-08-16T23:49:57.444Z,101225.13
2022-08-16T23:51:37.642Z,101266.22
2022-08-16T23:54:09.886Z,101251.03
2022-08-16T23:56:40.989Z,101262.53
2022-08-16T23:59:10.497Z,101267.84
